createdAt,value
2024-02-08T00:00:19.206Z,14.90
2024-02-08T00:02:22.521Z,14.90
2024-02-08T00:04:26.048Z,14.90
2024-02-08T00:06:33.456Z,14.90
2024-02-08T00:08:36.798Z,14.90
2024-02-08T00:10:41.166Z,14.80
2024-02-08T00:12:44.595Z,14.90
2024-02-08T00:14:47.116Z,14.90
2024-02-08T00:16:53.915Z,14.80
2024-02-08T00:18:57.287Z,14.80
2024-02-08T00:20:59.863Z,14.80
2024-02-08T00:23:02.577Z,14.80
2024-02-08T00:25:05.728Z,14.80
2024-02-08T00:27:08.384Z,14.80
2024-02-08T00:29:11.099Z,14.80
2024-02-08T00:31:13.661Z,14.80
2024-02-08T00:33:18.782Z,14.80
2024-02-08T00:35:21.675Z,14.70
2024-02-08T00:37:24.187Z,14.70
2024-02-08T00:39:26.940Z,14.70
2024-02-08T00:41:29.410Z,14.70
2024-02-08T00:43:31.912Z,14.70
2024-02-08T00:45:34.722Z,14.70
2024-02-08T00:47:37.314Z,14.70
2024-02-08T00:49:42.918Z,14.70
2024-02-08T00:51:45.471Z,14.70
2024-02-08T00:53:47.923Z,14.70
2024-02-08T00:55:50.568Z,14.70
2024-02-08T00:57:56.025Z,14.70
2024-02-08T00:59:58.508Z,14.70
2024-02-08T01:02:01.015Z,14.70
2024-02-08T01:04:03.623Z,14.70
2024-02-08T01:06:11.039Z,14.70
2024-02-08T01:08:13.992Z,14.70
2024-02-08T01:10:16.517Z,14.70
2024-02-08T01:12:24.857Z,14.70
2024-02-08T01:14:28.069Z,14.60
2024-02-08T01:16:32.811Z,14.70
2024-02-08T01:18:37.340Z,14.60
2024-02-08T01:20:41.295Z,14.60
2024-02-08T01:22:47.335Z,14.60
2024-02-08T01:24:50.568Z,14.60
2024-02-08T01:26:53.966Z,14.60
2024-02-08T01:28:57.228Z,14.60
2024-02-08T01:31:02.530Z,14.60
2024-02-08T01:33:12.812Z,14.60
2024-02-08T01:35:23.709Z,14.60
2024-02-08T01:37:27.247Z,14.60
2024-02-08T01:39:33.009Z,14.60
2024-02-08T01:41:40.400Z,14.70
2024-02-08T01:43:43.745Z,14.60
2024-02-08T01:45:46.164Z,14.70
2024-02-08T01:47:49.425Z,14.60
2024-02-08T01:49:52.081Z,14.60
2024-02-08T01:52:01.968Z,14.60
2024-02-08T01:54:05.664Z,14.60
2024-02-08T01:56:12.715Z,14.60
2024-02-08T01:58:19.305Z,14.60
2024-02-08T02:00:22.019Z,14.60
2024-02-08T02:02:28.591Z,14.60
2024-02-08T02:04:31.957Z,14.60
2024-02-08T02:06:34.754Z,14.60
2024-02-08T02:08:37.481Z,14.60
2024-02-08T02:10:40.493Z,14.60
2024-02-08T02:12:49.843Z,14.60
2024-02-08T02:14:53.670Z,14.60
2024-02-08T02:17:04.930Z,14.60
2024-02-08T02:19:09.120Z,14.60
2024-02-08T02:21:15.303Z,14.60
2024-02-08T02:23:20.564Z,14.60
2024-02-08T02:25:23.191Z,14.60
2024-02-08T02:27:26.127Z,14.60
2024-02-08T02:29:28.735Z,14.60
2024-02-08T02:31:33.914Z,14.60
2024-02-08T02:33:38.245Z,14.60
2024-02-08T02:35:41.121Z,14.60
2024-02-08T02:37:46.964Z,14.60
2024-02-08T02:39:54.341Z,14.60
2024-02-08T02:41:58.039Z,14.60
2024-02-08T02:44:01.309Z,14.60
2024-02-08T02:46:07.057Z,14.60
2024-02-08T02:48:10.911Z,14.60
2024-02-08T02:50:18.446Z,14.60
2024-02-08T02:52:20.995Z,14.60
2024-02-08T02:54:23.810Z,14.60
2024-02-08T02:56:31.750Z,14.60
2024-02-08T02:58:34.306Z,14.60
2024-02-08T03:00:38.087Z,14.60
2024-02-08T03:02:40.913Z,14.60
2024-02-08T03:04:43.458Z,14.60
2024-02-08T03:06:54.462Z,14.60
2024-02-08T03:08:59.386Z,14.60
2024-02-08T03:11:02.003Z,14.60
2024-02-08T03:13:09.402Z,14.60
2024-02-08T03:15:12.307Z,14.70
2024-02-08T03:17:14.795Z,14.60
2024-02-08T03:19:17.404Z,14.60
2024-02-08T03:21:23.723Z,14.70
2024-02-08T03:23:26.676Z,14.70
2024-02-08T03:25:32.408Z,14.70
2024-02-08T03:27:35.179Z,14.70
2024-02-08T03:29:43.302Z,14.70
2024-02-08T03:31:47.081Z,14.70
2024-02-08T03:33:51.576Z,14.70
2024-02-08T03:35:54.989Z,14.70
2024-02-08T03:37:57.885Z,14.70
2024-02-08T03:40:01.024Z,14.60
2024-02-08T03:42:05.903Z,14.70
2024-02-08T03:44:08.394Z,14.70
2024-02-08T03:46:13.512Z,14.70
2024-02-08T03:48:16.944Z,14.70
2024-02-08T03:50:21.251Z,14.60
2024-02-08T03:52:24.840Z,14.70
2024-02-08T03:54:31.977Z,14.60
2024-02-08T03:56:38.559Z,14.70
2024-02-08T03:58:42.219Z,14.70
2024-02-08T04:00:53.915Z,14.70
2024-02-08T04:03:12.235Z,14.70
2024-02-08T04:05:26.359Z,14.70
2024-02-08T04:07:47.174Z,14.60
2024-02-08T04:09:56.615Z,14.60
2024-02-08T04:12:18.013Z,14.70
2024-02-08T04:14:39.873Z,14.60
2024-02-08T04:17:01.966Z,14.60
2024-02-08T04:19:27.727Z,14.70
2024-02-08T04:21:49.812Z,14.60
2024-02-08T04:24:11.600Z,14.60
2024-02-08T04:26:33.511Z,14.70
2024-02-08T04:28:55.477Z,14.70
2024-02-08T04:31:17.090Z,14.70
2024-02-08T04:33:38.955Z,14.60
2024-02-08T04:36:03.577Z,14.60
2024-02-08T04:38:26.360Z,14.60
2024-02-08T04:40:49.388Z,14.60
2024-02-08T04:43:11.463Z,14.60
2024-02-08T04:45:33.534Z,14.60
2024-02-08T04:47:55.134Z,14.60
2024-02-08T04:50:17.690Z,14.60
2024-02-08T04:52:42.454Z,14.60
2024-02-08T04:54:45.761Z,14.60
2024-02-08T04:56:49.054Z,14.60
2024-02-08T05:01:03.143Z,14.60
2024-02-08T05:03:06.497Z,14.60
2024-02-08T05:05:12.614Z,14.60
2024-02-08T05:07:16.289Z,14.60
2024-02-08T05:09:23.155Z,14.60
2024-02-08T05:11:30.410Z,14.60
2024-02-08T05:13:33.945Z,14.60
2024-02-08T05:15:37.139Z,14.60
2024-02-08T05:17:40.452Z,14.60
2024-02-08T05:19:46.052Z,14.60
2024-02-08T05:21:49.655Z,14.60
2024-02-08T05:23:52.939Z,14.60
2024-02-08T05:25:59.055Z,14.60
2024-02-08T05:28:05.223Z,14.60
2024-02-08T05:30:10.423Z,14.60
2024-02-08T05:32:13.698Z,14.60
2024-02-08T05:34:18.724Z,14.60
2024-02-08T05:36:23.902Z,14.60
2024-02-08T05:38:38.954Z,14.60
2024-02-08T05:40:45.137Z,14.60
2024-02-08T05:42:50.894Z,14.60
2024-02-08T05:45:14.296Z,14.60
2024-02-08T05:47:26.719Z,14.60
2024-02-08T05:49:31.888Z,14.60
2024-02-08T05:51:39.170Z,14.60
2024-02-08T05:53:42.806Z,14.50
2024-02-08T05:55:49.577Z,14.60
2024-02-08T05:58:00.074Z,14.50
2024-02-08T06:00:11.474Z,14.50
2024-02-08T06:02:25.285Z,14.60
2024-02-08T06:04:42.425Z,14.50
2024-02-08T06:06:49.832Z,14.50
2024-02-08T06:08:57.664Z,14.50
2024-02-08T06:11:05.590Z,14.50
2024-02-08T06:13:15.215Z,14.60
2024-02-08T06:15:34.911Z,14.50
2024-02-08T06:17:39.441Z,14.50
2024-02-08T06:19:52.565Z,14.50
2024-02-08T06:21:59.544Z,14.50
2024-02-08T06:24:21.929Z,14.50
2024-02-08T06:26:29.471Z,14.50
2024-02-08T06:28:48.581Z,14.50
2024-02-08T06:30:51.464Z,14.50
2024-02-08T06:33:11.763Z,14.50
2024-02-08T06:35:21.366Z,14.50
2024-02-08T06:37:31.773Z,14.50
2024-02-08T06:39:45.994Z,14.50
2024-02-08T06:41:54.210Z,14.50
2024-02-08T06:44:19.558Z,14.50
2024-02-08T06:46:40.633Z,14.50
2024-02-08T06:49:12.013Z,14.60
2024-02-08T06:51:33.222Z,14.60
2024-02-08T06:53:54.113Z,14.50
2024-02-08T06:56:15.261Z,14.60
2024-02-08T06:58:36.660Z,14.60
2024-02-08T07:01:00.392Z,14.60
2024-02-08T07:03:21.522Z,14.60
2024-02-08T07:05:42.506Z,14.60
2024-02-08T07:08:03.628Z,14.60
2024-02-08T07:10:25.571Z,14.60
2024-02-08T07:12:48.408Z,14.60
2024-02-08T07:15:09.273Z,14.60
2024-02-08T07:17:34.500Z,14.60
2024-02-08T07:19:56.263Z,14.60
2024-02-08T07:22:18.424Z,14.60
2024-02-08T07:24:41.297Z,14.60
2024-02-08T07:27:03.038Z,14.60
2024-02-08T07:29:24.551Z,14.60
2024-02-08T07:31:46.601Z,14.60
2024-02-08T07:34:10.937Z,14.60
2024-02-08T07:36:32.835Z,14.60
2024-02-08T07:38:57.356Z,14.60
2024-02-08T07:41:00.557Z,14.60
2024-02-08T07:43:17.933Z,14.60
2024-02-08T07:45:28.421Z,14.60
2024-02-08T07:47:34.918Z,14.60
2024-02-08T07:49:43.998Z,14.60
2024-02-08T07:51:52.014Z,14.70
2024-02-08T07:53:59.805Z,14.70
2024-02-08T07:56:23.706Z,14.70
2024-02-08T07:58:28.740Z,14.70
2024-02-08T08:00:51.257Z,14.70
2024-02-08T08:02:56.301Z,14.70
2024-02-08T08:05:03.224Z,14.60
2024-02-08T08:07:11.405Z,14.70
2024-02-08T08:09:22.837Z,14.70
2024-02-08T08:11:32.753Z,14.70
2024-02-08T08:13:54.828Z,14.70
2024-02-08T08:16:17.441Z,14.50
2024-02-08T08:18:31.517Z,14.70
2024-02-08T08:20:57.996Z,14.70
2024-02-08T08:23:01.836Z,14.70
2024-02-08T08:25:13.523Z,14.70
2024-02-08T08:27:35.002Z,14.70
2024-02-08T08:29:46.697Z,14.70
2024-02-08T08:31:54.857Z,14.60
2024-02-08T08:34:01.404Z,14.70
2024-02-08T08:36:27.860Z,14.70
2024-02-08T08:38:30.518Z,14.70
2024-02-08T08:40:39.204Z,14.70
2024-02-08T08:42:51.786Z,14.70
2024-02-08T08:44:58.799Z,14.70
2024-02-08T08:47:02.536Z,14.70
2024-02-08T08:49:05.783Z,14.70
2024-02-08T08:51:13.499Z,14.70
2024-02-08T08:53:21.178Z,14.70
2024-02-08T08:55:24.651Z,14.70
2024-02-08T08:57:27.805Z,14.70
2024-02-08T08:59:34.210Z,14.70
2024-02-08T09:01:42.455Z,14.70
2024-02-08T09:03:46.765Z,14.70
2024-02-08T09:05:52.006Z,14.70
2024-02-08T09:07:58.070Z,14.70
2024-02-08T09:10:03.367Z,14.80
2024-02-08T09:12:09.298Z,14.80
2024-02-08T09:14:17.439Z,14.80
2024-02-08T09:16:25.796Z,14.80
2024-02-08T09:18:59.227Z,14.80
2024-02-08T09:21:06.424Z,14.80
2024-02-08T09:23:18.657Z,14.80
2024-02-08T09:25:31.366Z,14.80
2024-02-08T09:27:48.446Z,14.90
2024-02-08T09:29:58.152Z,14.90
2024-02-08T09:32:17.170Z,14.90
2024-02-08T09:34:21.190Z,14.90
2024-02-08T09:36:27.120Z,14.90
2024-02-08T09:38:46.358Z,14.90
2024-02-08T09:40:52.617Z,15.00
2024-02-08T09:42:58.953Z,15.00
2024-02-08T09:45:40.375Z,15.00
2024-02-08T09:47:53.791Z,15.00
2024-02-08T09:50:02.106Z,15.00
2024-02-08T09:52:18.329Z,15.00
2024-02-08T09:54:33.437Z,15.00
2024-02-08T09:56:40.717Z,15.00
2024-02-08T10:01:03.934Z,15.10
2024-02-08T10:03:09.011Z,15.10
2024-02-08T10:05:41.497Z,15.10
2024-02-08T10:08:03.667Z,15.10
2024-02-08T10:10:19.380Z,15.20
2024-02-08T10:12:30.579Z,15.20
2024-02-08T10:14:34.417Z,15.20
2024-02-08T10:16:44.172Z,15.20
2024-02-08T10:18:58.564Z,15.20
2024-02-08T10:21:14.709Z,15.20
2024-02-08T10:23:39.685Z,15.20
2024-02-08T10:26:04.463Z,15.20
2024-02-08T10:28:09.087Z,15.20
2024-02-08T10:30:13.818Z,15.20
2024-02-08T10:32:20.130Z,15.20
2024-02-08T10:34:34.226Z,15.20
2024-02-08T10:36:41.195Z,15.20
2024-02-08T10:39:00.842Z,15.20
2024-02-08T10:41:13.267Z,15.20
2024-02-08T10:43:19.252Z,15.20
2024-02-08T10:45:24.491Z,15.20
2024-02-08T10:47:42.494Z,15.30
2024-02-08T10:49:48.680Z,15.20
2024-02-08T10:51:51.754Z,15.20
2024-02-08T10:54:07.059Z,15.30
2024-02-08T10:56:17.820Z,15.20
2024-02-08T10:58:30.831Z,15.30
2024-02-08T11:00:42.200Z,15.30
2024-02-08T11:03:01.927Z,15.30
2024-02-08T11:05:18.821Z,15.30
2024-02-08T11:07:35.098Z,15.30
2024-02-08T11:09:37.835Z,15.30
2024-02-08T11:11:53.020Z,15.30
2024-02-08T11:13:56.038Z,15.30
2024-02-08T11:16:16.893Z,15.30
2024-02-08T11:18:37.387Z,15.30
2024-02-08T11:20:46.040Z,15.30
2024-02-08T11:22:58.736Z,15.40
2024-02-08T11:25:11.060Z,15.30
2024-02-08T11:27:29.246Z,15.30
2024-02-08T11:29:42.871Z,15.30
2024-02-08T11:31:47.786Z,15.30
2024-02-08T11:33:57.504Z,15.30
2024-02-08T11:36:15.644Z,15.30
2024-02-08T11:38:28.301Z,15.30
2024-02-08T11:40:37.546Z,15.30
2024-02-08T11:42:43.946Z,15.30
2024-02-08T11:44:47.216Z,15.30
2024-02-08T11:46:52.820Z,15.30
2024-02-08T11:49:11.276Z,15.30
2024-02-08T11:51:17.113Z,15.30
2024-02-08T11:53:32.780Z,15.30
2024-02-08T11:55:37.201Z,15.40
2024-02-08T11:57:43.392Z,15.30
2024-02-08T11:59:47.309Z,15.40
2024-02-08T12:01:50.972Z,15.40
2024-02-08T12:03:55.466Z,15.30
2024-02-08T12:05:59.921Z,15.30
2024-02-08T12:08:11.962Z,15.30
2024-02-08T12:10:16.819Z,15.30
2024-02-08T12:12:26.947Z,15.30
2024-02-08T12:14:32.981Z,15.40
2024-02-08T12:16:36.442Z,15.40
2024-02-08T12:18:39.022Z,15.40
2024-02-08T12:20:45.222Z,15.40
2024-02-08T12:22:54.619Z,15.40
2024-02-08T12:25:00.631Z,15.40
2024-02-08T12:27:12.853Z,15.40
2024-02-08T12:29:19.027Z,15.40
2024-02-08T12:31:25.691Z,15.50
2024-02-08T12:33:30.360Z,15.40
2024-02-08T12:35:34.589Z,15.40
2024-02-08T12:37:37.243Z,15.40
2024-02-08T12:39:44.542Z,15.50
2024-02-08T12:41:47.125Z,15.40
2024-02-08T12:43:53.161Z,15.50
2024-02-08T12:45:56.083Z,15.50
2024-02-08T12:48:06.205Z,15.50
2024-02-08T12:50:19.260Z,15.50
2024-02-08T12:52:28.486Z,15.40
2024-02-08T12:54:31.019Z,15.50
2024-02-08T12:56:33.462Z,15.50
2024-02-08T12:58:36.238Z,15.50
2024-02-08T13:00:39.219Z,15.50
2024-02-08T13:02:42.303Z,15.50
2024-02-08T13:04:52.331Z,15.50
2024-02-08T13:06:56.305Z,15.50
2024-02-08T13:09:18.555Z,15.50
2024-02-08T13:11:24.310Z,15.50
2024-02-08T13:13:27.328Z,15.50
2024-02-08T13:15:33.948Z,15.50
2024-02-08T13:17:39.488Z,15.50
2024-02-08T13:19:43.252Z,15.50
2024-02-08T13:21:48.398Z,15.50
2024-02-08T13:23:50.889Z,15.50
2024-02-08T13:25:58.059Z,15.50
2024-02-08T13:28:01.300Z,15.50
2024-02-08T13:30:04.034Z,15.50
2024-02-08T13:32:07.110Z,15.50
2024-02-08T13:34:11.046Z,15.50
2024-02-08T13:36:13.716Z,15.50
2024-02-08T13:38:24.589Z,15.50
2024-02-08T13:40:27.885Z,15.50
2024-02-08T13:42:43.107Z,15.50
2024-02-08T13:44:55.518Z,15.50
2024-02-08T13:46:58.134Z,15.50
2024-02-08T13:49:00.811Z,15.40
2024-02-08T13:51:08.828Z,15.50
2024-02-08T13:53:22.600Z,15.50
2024-02-08T13:55:45.583Z,15.50
2024-02-08T13:57:55.806Z,15.50
2024-02-08T14:00:05.514Z,15.50
2024-02-08T14:02:17.136Z,15.50
2024-02-08T14:04:23.802Z,15.50
2024-02-08T14:06:27.757Z,15.50
2024-02-08T14:08:31.561Z,15.50
2024-02-08T14:10:38.327Z,15.50
2024-02-08T14:12:46.626Z,15.50
2024-02-08T14:14:53.411Z,15.50
2024-02-08T14:16:57.558Z,15.50
2024-02-08T14:19:01.126Z,15.60
2024-02-08T14:21:04.819Z,15.60
2024-02-08T14:23:15.985Z,15.50
2024-02-08T14:25:25.554Z,15.50
2024-02-08T14:27:31.610Z,15.50
2024-02-08T14:29:38.847Z,15.50
2024-02-08T14:31:43.275Z,15.50
2024-02-08T14:33:47.979Z,15.50
2024-02-08T14:35:53.045Z,15.50
2024-02-08T14:37:56.282Z,15.50
2024-02-08T14:40:02.386Z,15.50
2024-02-08T14:42:13.270Z,15.50
2024-02-08T14:44:19.446Z,15.50
2024-02-08T14:46:27.792Z,15.50
2024-02-08T14:48:39.721Z,15.50
2024-02-08T14:50:55.656Z,15.50
2024-02-08T14:53:02.190Z,15.50
2024-02-08T14:55:22.741Z,15.50
2024-02-08T14:57:27.967Z,15.50
2024-02-08T14:59:52.781Z,15.50
2024-02-08T15:02:14.363Z,15.50
2024-02-08T15:04:17.986Z,15.50
2024-02-08T15:06:39.789Z,15.40
2024-02-08T15:08:48.904Z,15.50
2024-02-08T15:11:01.406Z,15.50
2024-02-08T15:13:13.292Z,15.40
2024-02-08T15:15:32.066Z,15.40
2024-02-08T15:17:44.564Z,15.40
2024-02-08T15:19:48.561Z,15.40
2024-02-08T15:21:54.526Z,15.40
2024-02-08T15:24:09.181Z,15.40
2024-02-08T15:26:14.963Z,15.40
2024-02-08T15:28:37.556Z,15.40
2024-02-08T15:30:50.789Z,15.40
2024-02-08T15:32:59.125Z,15.40
2024-02-08T15:35:06.385Z,15.50
2024-02-08T15:37:17.892Z,15.40
2024-02-08T15:39:37.066Z,15.40
2024-02-08T15:41:52.457Z,15.40
2024-02-08T15:43:58.879Z,15.40
2024-02-08T15:46:05.896Z,15.40
2024-02-08T15:48:15.567Z,15.40
2024-02-08T15:50:18.295Z,15.40
2024-02-08T15:52:23.911Z,15.40
2024-02-08T15:54:38.518Z,15.40
2024-02-08T15:56:41.052Z,15.40
2024-02-08T15:58:46.811Z,15.40
2024-02-08T16:01:09.071Z,15.40
2024-02-08T16:03:19.424Z,15.40
2024-02-08T16:05:24.457Z,15.40
2024-02-08T16:07:34.443Z,15.40
2024-02-08T16:09:39.198Z,15.40
2024-02-08T16:11:44.406Z,15.40
2024-02-08T16:13:54.696Z,15.40
2024-02-08T16:15:59.243Z,15.40
2024-02-08T16:18:23.593Z,15.40
2024-02-08T16:20:40.200Z,15.40
2024-02-08T16:22:54.238Z,15.40
2024-02-08T16:25:04.503Z,15.40
2024-02-08T16:27:14.502Z,15.40
2024-02-08T16:29:21.880Z,15.40
2024-02-08T16:31:33.108Z,15.40
2024-02-08T16:33:56.371Z,15.40
2024-02-08T16:36:23.234Z,15.40
2024-02-08T16:38:33.534Z,15.40
2024-02-08T16:40:45.390Z,15.40
2024-02-08T16:42:49.434Z,15.40
2024-02-08T16:44:52.431Z,15.40
2024-02-08T16:46:57.161Z,15.40
2024-02-08T16:49:05.728Z,15.40
2024-02-08T16:51:11.463Z,15.40
2024-02-08T16:53:20.663Z,15.40
2024-02-08T16:55:24.105Z,15.40
2024-02-08T16:57:32.988Z,15.40
2024-02-08T16:59:47.087Z,15.40
2024-02-08T17:02:06.169Z,15.40
2024-02-08T17:04:12.310Z,15.50
2024-02-08T17:06:18.232Z,15.50
2024-02-08T17:08:31.266Z,15.40
2024-02-08T17:10:47.421Z,15.50
2024-02-08T17:13:01.465Z,15.50
2024-02-08T17:15:22.261Z,15.50
2024-02-08T17:17:36.729Z,15.50
2024-02-08T17:19:48.442Z,15.40
2024-02-08T17:21:53.996Z,15.40
2024-02-08T17:24:03.837Z,15.40
2024-02-08T17:26:17.097Z,15.40
2024-02-08T17:28:32.808Z,15.40
2024-02-08T17:30:56.130Z,15.40
2024-02-08T17:33:02.432Z,15.40
2024-02-08T17:35:05.883Z,15.40
2024-02-08T17:37:15.109Z,15.40
2024-02-08T17:39:35.148Z,15.40
2024-02-08T17:41:39.478Z,15.40
2024-02-08T17:43:51.684Z,15.40
2024-02-08T17:46:04.556Z,15.40
2024-02-08T17:48:13.179Z,15.30
2024-02-08T17:50:31.150Z,15.40
2024-02-08T17:52:39.449Z,15.30
2024-02-08T17:54:53.746Z,15.40
2024-02-08T17:57:03.441Z,15.40
2024-02-08T17:59:17.690Z,15.40
2024-02-08T18:01:33.509Z,15.40
2024-02-08T18:03:37.954Z,15.40
2024-02-08T18:05:41.506Z,15.40
2024-02-08T18:07:48.499Z,15.40
2024-02-08T18:09:56.118Z,15.40
2024-02-08T18:12:14.099Z,15.40
2024-02-08T18:14:19.384Z,15.40
2024-02-08T18:16:24.606Z,15.40
2024-02-08T18:18:28.841Z,15.40
2024-02-08T18:20:35.245Z,15.40
2024-02-08T18:22:42.586Z,15.30
2024-02-08T18:24:52.543Z,15.40
2024-02-08T18:27:02.195Z,15.40
2024-02-08T18:29:05.506Z,15.40
2024-02-08T18:31:09.934Z,15.40
2024-02-08T18:33:18.693Z,15.40
2024-02-08T18:35:25.111Z,15.40
2024-02-08T18:37:29.424Z,15.40
2024-02-08T18:39:39.675Z,15.40
2024-02-08T18:41:52.305Z,15.50
2024-02-08T18:43:56.485Z,15.40
2024-02-08T18:46:00.163Z,15.40
2024-02-08T18:48:05.088Z,15.40
2024-02-08T18:50:09.439Z,15.40
2024-02-08T18:52:14.207Z,15.40
2024-02-08T18:54:37.869Z,15.40
2024-02-08T18:56:43.191Z,15.40
2024-02-08T18:58:53.552Z,15.50
2024-02-08T19:00:56.686Z,15.50
2024-02-08T19:03:09.073Z,15.40
2024-02-08T19:05:17.402Z,15.40
2024-02-08T19:07:20.205Z,15.40
2024-02-08T19:09:27.881Z,15.40
2024-02-08T19:11:30.405Z,15.40
2024-02-08T19:13:33.845Z,15.40
2024-02-08T19:15:41.315Z,15.40
2024-02-08T19:17:48.427Z,15.40
2024-02-08T19:19:56.940Z,15.30
2024-02-08T19:21:59.452Z,15.40
2024-02-08T19:24:05.774Z,15.40
2024-02-08T19:26:12.078Z,15.30
2024-02-08T19:28:23.110Z,15.40
2024-02-08T19:30:25.797Z,15.30
2024-02-08T19:32:33.086Z,15.30
2024-02-08T19:34:39.083Z,15.40
2024-02-08T19:36:53.247Z,15.30
2024-02-08T19:38:56.928Z,15.30
2024-02-08T19:40:59.763Z,15.30
2024-02-08T19:43:04.802Z,15.30
2024-02-08T19:45:18.608Z,15.40
2024-02-08T19:47:28.782Z,15.30
2024-02-08T19:49:35.005Z,15.30
2024-02-08T19:51:37.574Z,15.30
2024-02-08T19:53:40.414Z,15.30
2024-02-08T19:55:43.511Z,15.30
2024-02-08T19:57:50.548Z,15.30
2024-02-08T19:59:55.188Z,15.30
2024-02-08T20:01:59.518Z,15.30
2024-02-08T20:04:04.837Z,15.30
2024-02-08T20:06:19.115Z,15.30
2024-02-08T20:08:24.340Z,15.30
2024-02-08T20:10:32.511Z,15.30
2024-02-08T20:12:39.057Z,15.40
2024-02-08T20:14:45.111Z,15.30
2024-02-08T20:16:48.525Z,15.40
2024-02-08T20:18:54.501Z,15.30
2024-02-08T20:21:05.235Z,15.30
2024-02-08T20:23:15.019Z,15.30
2024-02-08T20:25:17.526Z,15.30
2024-02-08T20:27:21.700Z,15.30
2024-02-08T20:29:29.638Z,15.30
2024-02-08T20:31:33.526Z,15.30
2024-02-08T20:33:39.020Z,15.30
2024-02-08T20:35:43.369Z,15.30
2024-02-08T20:37:46.939Z,15.30
2024-02-08T20:39:55.273Z,15.30
2024-02-08T20:42:01.093Z,15.30
2024-02-08T20:44:14.413Z,15.30
2024-02-08T20:46:17.592Z,15.30
2024-02-08T20:48:21.066Z,15.30
2024-02-08T20:50:25.058Z,15.30
2024-02-08T20:52:27.506Z,15.40
2024-02-08T20:54:33.501Z,15.30
2024-02-08T20:56:39.557Z,15.30
2024-02-08T20:58:42.132Z,15.30
2024-02-08T21:00:45.187Z,15.30
2024-02-08T21:02:48.374Z,15.30
2024-02-08T21:04:51.004Z,15.30
2024-02-08T21:06:55.482Z,15.30
2024-02-08T21:08:59.354Z,15.30
2024-02-08T21:11:02.778Z,15.30
2024-02-08T21:13:08.443Z,15.30
2024-02-08T21:15:13.391Z,15.20
2024-02-08T21:17:16.780Z,15.20
2024-02-08T21:19:22.396Z,15.20
2024-02-08T21:21:25.810Z,15.20
2024-02-08T21:23:34.866Z,15.20
2024-02-08T21:25:41.926Z,15.20
2024-02-08T21:27:45.834Z,15.20
2024-02-08T21:29:52.095Z,15.20
2024-02-08T21:31:57.739Z,15.20
2024-02-08T21:34:00.771Z,15.20
2024-02-08T21:36:05.790Z,15.20
2024-02-08T21:38:09.183Z,15.20
2024-02-08T21:40:13.030Z,15.30
2024-02-08T21:42:16.797Z,15.20
2024-02-08T21:44:22.080Z,15.20
2024-02-08T21:46:28.722Z,15.20
2024-02-08T21:48:32.294Z,15.20
2024-02-08T21:50:34.808Z,15.20
2024-02-08T21:52:37.950Z,15.20
2024-02-08T21:54:40.393Z,15.20
2024-02-08T21:56:42.816Z,15.20
2024-02-08T21:58:45.472Z,15.20
2024-02-08T22:03:10.659Z,15.20
2024-02-08T22:05:13.651Z,15.20
2024-02-08T22:07:19.183Z,15.20
2024-02-08T22:09:21.693Z,15.20
2024-02-08T22:11:24.150Z,15.20
2024-02-08T22:13:29.236Z,15.20
2024-02-08T22:15:33.632Z,15.20
2024-02-08T22:17:36.854Z,15.30
2024-02-08T22:19:47.904Z,15.30
2024-02-08T22:21:51.581Z,15.30
2024-02-08T22:23:54.423Z,15.30
2024-02-08T22:25:56.914Z,15.30
2024-02-08T22:28:01.596Z,15.30
2024-02-08T22:30:11.476Z,15.30
2024-02-08T22:32:14.785Z,15.30
2024-02-08T22:34:21.212Z,15.30
2024-02-08T22:36:27.115Z,15.30
2024-02-08T22:38:30.357Z,15.30
2024-02-08T22:40:37.826Z,15.30
2024-02-08T22:42:42.697Z,15.30
2024-02-08T22:44:47.198Z,15.30
2024-02-08T22:46:54.631Z,15.30
2024-02-08T22:48:59.836Z,15.20
2024-02-08T22:51:02.328Z,15.30
2024-02-08T22:53:08.975Z,15.30
2024-02-08T22:55:12.556Z,15.30
2024-02-08T22:57:14.988Z,15.30
2024-02-08T22:59:20.897Z,15.30
2024-02-08T23:01:35.188Z,15.30
2024-02-08T23:03:38.329Z,15.30
2024-02-08T23:05:41.666Z,15.30
2024-02-08T23:07:44.190Z,15.30
2024-02-08T23:09:49.256Z,15.30
2024-02-08T23:11:51.973Z,15.30
2024-02-08T23:13:54.466Z,15.30
2024-02-08T23:15:58.633Z,15.30
2024-02-08T23:18:04.161Z,15.30
2024-02-08T23:20:12.361Z,15.30
2024-02-08T23:22:14.881Z,15.20
2024-02-08T23:24:19.968Z,15.30
2024-02-08T23:26:24.917Z,15.30
2024-02-08T23:28:29.711Z,15.30
2024-02-08T23:30:33.815Z,15.30
2024-02-08T23:32:36.901Z,15.30
2024-02-08T23:34:42.385Z,15.30
2024-02-08T23:36:46.025Z,15.30
2024-02-08T23:38:48.780Z,15.30
2024-02-08T23:40:51.305Z,15.30
2024-02-08T23:42:58.658Z,15.30
2024-02-08T23:45:01.077Z,15.30
2024-02-08T23:47:03.483Z,15.20
2024-02-08T23:49:06.818Z,15.20
2024-02-08T23:51:09.963Z,15.20
2024-02-08T23:53:13.125Z,15.20
2024-02-08T23:55:20.171Z,15.20
2024-02-08T23:57:23.362Z,15.20
2024-02-08T23:59:30.190Z,15.20
